KPHL/PHL METAR and TAF weather

Enter ICAO airport designator
Station Type Date Time Source
KPHL METAR 2024/04/18 06:54 UTC NOAA

KPHL 180654Z 05009KT 6SM BR OVC007 11/10 A2991 RMK AO2 SLP128 T01110100


Station Type Date Time Source
KPHL Decoded METAR 2024/04/18 06:54 UTC NOAA

PHILADELPHIA INTERNATIONAL AIRPT, PA, United States (KPHL) 39-52N 075-14W 18M
Apr 18, 2024 - 02:54 AM EDT / 2024.04.18 0654 UTC
Wind: from the NE (050 degrees) at 10 MPH (9 KT):0
Visibility: 6 mile(s):0
Sky conditions: overcast
Weather: mist
Temperature: 52.0 F (11.1 C)
Dew Point: 50.0 F (10.0 C)
Relative Humidity: 92%
Pressure (altimeter): 29.91 in. Hg (1012 hPa)
ob: KPHL 180654Z 05009KT 6SM BR OVC007 11/10 A2991 RMK AO2 SLP128 T01110100
cycle: 7

Station Type Date Time Source
KPHL TAF 2024/04/18 21:51 UTC NOAA